createdAt,value
2023-03-11T00:01:54.606Z,986.65
2023-03-11T00:12:01.489Z,986.96
2023-03-11T00:22:08.709Z,987.20
2023-03-11T00:32:16.133Z,987.49
2023-03-11T00:42:22.796Z,987.61
2023-03-11T00:52:29.904Z,987.83
2023-03-11T01:02:37.235Z,988.10
2023-03-11T01:12:44.225Z,988.35
2023-03-11T01:22:51.095Z,988.70
2023-03-11T01:32:58.294Z,989.03
2023-03-11T01:43:05.206Z,989.28
2023-03-11T01:53:11.986Z,989.65
2023-03-11T02:03:19.260Z,989.98
2023-03-11T02:13:26.456Z,990.33
2023-03-11T02:23:33.202Z,990.74
2023-03-11T02:33:40.066Z,991.18
2023-03-11T02:43:47.321Z,991.54
2023-03-11T02:53:54.143Z,991.91
2023-03-11T03:04:01.503Z,992.26
2023-03-11T03:14:08.549Z,992.64
2023-03-11T03:24:15.592Z,992.93
2023-03-11T03:34:22.709Z,993.34
2023-03-11T03:44:29.356Z,993.83
2023-03-11T03:54:36.537Z,994.09
2023-03-11T04:04:44.099Z,994.44
2023-03-11T04:14:51.343Z,994.72
2023-03-11T04:24:57.854Z,994.96
2023-03-11T04:35:04.752Z,995.14
2023-03-11T04:45:11.685Z,995.42
2023-03-11T04:55:19.016Z,995.76
2023-03-11T05:05:26.276Z,996.03
2023-03-11T05:15:32.839Z,996.30
2023-03-11T05:25:39.901Z,996.58
2023-03-11T05:35:47.179Z,996.90
2023-03-11T05:45:54.027Z,997.08
2023-03-11T05:56:01.198Z,997.30
2023-03-11T06:06:08.254Z,997.56
2023-03-11T06:16:15.389Z,997.76
2023-03-11T06:26:22.386Z,997.95
2023-03-11T06:36:29.329Z,998.16
2023-03-11T06:46:36.659Z,998.47
2023-03-11T06:56:44.160Z,998.86
2023-03-11T07:06:51.361Z,999.01
2023-03-11T07:16:58.709Z,999.31
2023-03-11T07:27:05.680Z,999.55
2023-03-11T07:37:12.778Z,999.83
2023-03-11T07:47:19.741Z,1000.05
2023-03-11T07:57:26.753Z,1000.33
2023-03-11T08:07:34.142Z,1000.56
2023-03-11T08:17:41.507Z,1000.75
2023-03-11T08:27:48.721Z,1000.98
2023-03-11T08:37:56.194Z,1001.21
2023-03-11T08:48:03.632Z,1001.45
2023-03-11T08:58:11.068Z,1001.68
2023-03-11T09:08:18.186Z,1001.81
2023-03-11T09:18:25.041Z,1001.93
2023-03-11T09:28:32.278Z,1002.03
2023-03-11T09:38:39.132Z,1002.22
2023-03-11T09:48:46.119Z,1002.39
2023-03-11T09:58:53.057Z,1002.62
2023-03-11T10:09:00.495Z,1002.75
2023-03-11T10:19:07.262Z,1002.84
2023-03-11T10:29:14.466Z,1002.99
2023-03-11T10:39:21.481Z,1003.22
2023-03-11T10:49:28.481Z,1003.27
2023-03-11T10:59:35.419Z,1003.34
2023-03-11T11:09:41.577Z,1003.52
2023-03-11T11:19:48.511Z,1003.57
2023-03-11T11:29:56.056Z,1003.58
2023-03-11T11:40:03.782Z,1003.64
2023-03-11T11:50:10.643Z,1003.55
2023-03-11T12:00:17.751Z,1003.68
2023-03-11T12:10:24.807Z,1003.80
2023-03-11T12:20:32.051Z,1003.91
2023-03-11T12:30:39.210Z,1003.95
2023-03-11T12:40:47.089Z,1004.08
2023-03-11T12:50:54.251Z,1004.11
2023-03-11T13:01:01.226Z,1004.22
2023-03-11T13:11:07.958Z,1004.27
2023-03-11T13:21:15.190Z,1004.35
2023-03-11T13:31:22.559Z,1004.49
2023-03-11T13:41:30.136Z,1004.69
2023-03-11T13:51:37.606Z,1004.71
2023-03-11T14:01:44.363Z,1004.87
2023-03-11T14:11:51.461Z,1004.98
2023-03-11T14:21:58.383Z,1005.00
2023-03-11T14:32:05.378Z,1005.04
2023-03-11T14:42:12.425Z,1005.11
2023-03-11T14:52:19.309Z,1005.20
2023-03-11T15:02:26.587Z,1005.24
2023-03-11T15:12:33.824Z,1005.33
2023-03-11T15:22:40.810Z,1005.33
2023-03-11T15:32:47.511Z,1005.40
2023-03-11T15:42:55.143Z,1005.45
2023-03-11T15:53:01.794Z,1005.48
2023-03-11T16:03:08.926Z,1005.64
2023-03-11T16:13:15.958Z,1005.75
2023-03-11T16:23:22.722Z,1005.83
2023-03-11T16:33:29.106Z,1006.07
2023-03-11T16:43:35.909Z,1006.21
2023-03-11T16:53:42.982Z,1006.24
2023-03-11T17:03:50.156Z,1006.34
2023-03-11T17:14:13.648Z,1006.55
2023-03-11T17:24:09.361Z,1006.61
2023-03-11T17:34:16.335Z,1006.65
2023-03-11T17:44:23.503Z,1006.67
2023-03-11T17:54:30.573Z,1006.80
2023-03-11T18:04:37.467Z,1006.87
2023-03-11T18:14:44.567Z,1006.89
2023-03-11T18:24:51.197Z,1007.03
2023-03-11T18:34:58.259Z,1007.09
2023-03-11T18:45:05.527Z,1007.13
2023-03-11T18:55:12.523Z,1007.10
2023-03-11T19:05:19.890Z,1007.17
2023-03-11T19:15:27.872Z,1007.19
2023-03-11T19:25:34.652Z,1007.23
2023-03-11T19:35:41.962Z,1007.30
2023-03-11T19:45:49.096Z,1007.34
2023-03-11T19:55:55.981Z,1007.36
2023-03-11T20:06:03.301Z,1007.30
2023-03-11T20:16:10.341Z,1007.24
2023-03-11T20:26:17.816Z,1007.26
2023-03-11T20:36:25.202Z,1007.32
2023-03-11T20:46:32.245Z,1007.35
2023-03-11T20:56:39.131Z,1007.45
2023-03-11T21:06:45.950Z,1007.44
2023-03-11T21:16:53.544Z,1007.34
2023-03-11T21:27:01.592Z,1007.42
2023-03-11T21:37:09.455Z,1007.35
2023-03-11T21:47:16.509Z,1007.26
2023-03-11T21:57:23.592Z,1007.26
2023-03-11T22:07:30.315Z,1007.22
2023-03-11T22:17:37.584Z,1007.23
2023-03-11T22:27:44.610Z,1007.21
2023-03-11T22:37:51.875Z,1007.30
2023-03-11T22:47:58.503Z,1007.32
2023-03-11T22:58:05.686Z,1007.31
2023-03-11T23:08:13.264Z,1007.35
2023-03-11T23:18:19.809Z,1007.33
2023-03-11T23:28:27.058Z,1007.40
2023-03-11T23:38:34.062Z,1007.34
2023-03-11T23:48:41.566Z,1007.45
2023-03-11T23:58:48.814Z,1007.42
